Time;durP1;ratioP1;P1;durP2;ratioP2;P2;SDS_P1;SDS_P2;PMS_P1;PMS_P2;Temp;Humidity;BMP_temperature;BMP_pressure;BME280_temperature;BME280_humidity;BME280_pressure;Samples;Min_cycle;Max_cycle;Signal;HPM_P1;HPM_P2
2023/08/22 00:02:23;;;;;;;13.80;8.82;;;21.30;99.90;;;;;;4901122;29;20032;-84
2023/08/22 00:04:48;;;;;;;13.55;9.75;;;21.30;99.90;;;;;;4903428;29;20036;-84
2023/08/22 00:07:14;;;;;;;13.20;9.23;;;21.30;99.90;;;;;;4902075;29;20032;-84
2023/08/22 00:09:39;;;;;;;13.98;8.95;;;21.30;99.90;;;;;;4904538;29;20035;-84
2023/08/22 00:12:05;;;;;;;10.70;8.88;;;21.20;99.90;;;;;;4903226;29;20024;-85
2023/08/22 00:14:31;;;;;;;15.23;9.23;;;21.20;99.90;;;;;;4903164;29;20032;-84
2023/08/22 00:16:56;;;;;;;16.77;10.15;;;21.20;99.90;;;;;;4899363;29;20065;-84
2023/08/22 00:19:22;;;;;;;11.55;9.40;;;21.10;99.90;;;;;;4902256;29;20032;-85
2023/08/22 00:21:48;;;;;;;14.95;9.48;;;21.10;99.90;;;;;;4901601;29;20103;-84
2023/08/22 00:24:13;;;;;;;10.77;9.30;;;21.10;99.90;;;;;;4904272;29;20313;-86
2023/08/22 00:26:39;;;;;;;13.43;9.10;;;21.00;99.90;;;;;;4905163;29;20024;-85
2023/08/22 00:29:04;;;;;;;14.75;9.30;;;21.00;99.90;;;;;;4901696;29;20039;-84
2023/08/22 00:31:30;;;;;;;14.65;10.10;;;21.00;99.90;;;;;;4902721;29;20111;-84
2023/08/22 00:33:58;;;;;;;14.40;10.13;;;21.00;99.90;;;;;;4902468;29;20036;-85
2023/08/22 00:36:23;;;;;;;11.52;9.82;;;21.00;99.90;;;;;;4904088;29;20035;-84
2023/08/22 00:38:49;;;;;;;11.82;9.32;;;21.00;99.90;;;;;;4902194;29;20024;-84
2023/08/22 00:41:14;;;;;;;12.55;8.90;;;20.90;99.90;;;;;;4902848;29;20028;-85
2023/08/22 00:43:40;;;;;;;14.48;9.20;;;20.90;99.90;;;;;;4902398;29;20045;-85
2023/08/22 00:46:06;;;;;;;15.43;9.55;;;20.90;99.90;;;;;;4901578;29;20028;-84
2023/08/22 00:48:31;;;;;;;13.98;9.85;;;20.90;99.90;;;;;;4900390;29;20028;-85
2023/08/22 00:50:57;;;;;;;13.10;10.15;;;20.80;99.90;;;;;;4898432;29;20060;-84
2023/08/22 00:53:23;;;;;;;10.02;9.02;;;20.80;99.90;;;;;;4899862;29;20551;-84
2023/08/22 00:55:49;;;;;;;11.15;9.73;;;20.80;99.90;;;;;;4900554;29;20039;-85
2023/08/22 00:58:14;;;;;;;11.32;9.27;;;20.80;99.90;;;;;;4901131;29;20083;-85
2023/08/22 01:00:40;;;;;;;15.00;9.27;;;20.80;99.90;;;;;;4902828;29;20024;-85
2023/08/22 01:03:06;;;;;;;12.40;9.90;;;20.70;99.90;;;;;;4902879;29;20040;-84
2023/08/22 01:05:38;;;;;;;14.27;9.10;;;20.70;99.90;;;;;;4898714;29;20035;-84
2023/08/22 01:08:27;;;;;;;13.40;9.35;;;20.70;99.90;;;;;;4901349;29;20063;-84
2023/08/22 01:10:58;;;;;;;14.85;8.77;;;20.70;99.90;;;;;;4900300;29;20111;-84
2023/08/22 01:13:31;;;;;;;11.98;8.90;;;20.70;99.90;;;;;;4902966;29;20028;-84
2023/08/22 01:15:57;;;;;;;11.20;8.15;;;20.70;99.90;;;;;;4900064;29;20060;-84
2023/08/22 01:18:23;;;;;;;14.25;9.45;;;20.70;99.90;;;;;;4898683;29;20044;-86
2023/08/22 01:20:48;;;;;;;14.00;9.10;;;20.60;99.90;;;;;;4900815;29;20020;-85
2023/08/22 01:23:14;;;;;;;10.25;8.73;;;20.60;99.90;;;;;;4900651;29;20099;-84
2023/08/22 01:25:40;;;;;;;13.13;9.40;;;20.60;99.90;;;;;;4902604;29;20020;-84
2023/08/22 01:28:12;;;;;;;17.55;8.38;;;20.60;99.90;;;;;;4900317;29;20028;-85
2023/08/22 01:30:49;;;;;;;10.75;8.43;;;20.60;99.90;;;;;;4900017;29;20028;-84
2023/08/22 01:33:26;;;;;;;14.32;8.52;;;20.60;99.90;;;;;;4900611;29;20176;-84
2023/08/22 01:35:54;;;;;;;12.68;9.38;;;20.60;99.90;;;;;;4901862;29;20032;-84
2023/08/22 01:38:22;;;;;;;12.43;9.10;;;20.50;99.90;;;;;;4899698;29;20032;-84
2023/08/22 01:40:48;;;;;;;10.75;8.77;;;20.50;99.90;;;;;;4901961;29;20714;-84
2023/08/22 01:43:14;;;;;;;10.55;8.77;;;20.50;99.90;;;;;;4899533;29;20036;-84
2023/08/22 01:45:40;;;;;;;12.07;8.50;;;20.50;99.90;;;;;;4899375;29;20029;-85
2023/08/22 01:48:06;;;;;;;13.65;8.70;;;20.40;99.90;;;;;;4900013;29;20080;-85
2023/08/22 01:50:31;;;;;;;11.10;8.80;;;20.40;99.90;;;;;;4901538;29;20095;-86
2023/08/22 01:52:57;;;;;;;11.82;9.30;;;20.40;99.90;;;;;;4900699;29;20123;-85
2023/08/22 01:55:23;;;;;;;11.23;9.23;;;20.40;99.90;;;;;;4901390;29;20036;-85
2023/08/22 01:57:49;;;;;;;11.88;9.23;;;20.30;99.90;;;;;;4900860;29;21150;-85
2023/08/22 02:00:14;;;;;;;11.32;9.13;;;20.30;99.90;;;;;;4900169;29;20060;-84
2023/08/22 02:02:41;;;;;;;14.43;8.98;;;20.30;99.90;;;;;;4902029;29;20108;-85
2023/08/22 02:05:06;;;;;;;11.30;9.20;;;20.20;99.90;;;;;;4900049;29;20117;-85
2023/08/22 02:07:33;;;;;;;10.25;8.77;;;20.20;99.90;;;;;;4902339;29;20036;-84
2023/08/22 02:09:59;;;;;;;10.60;8.57;;;20.20;99.90;;;;;;4901405;29;20059;-85
2023/08/22 02:12:25;;;;;;;11.95;8.52;;;20.20;99.90;;;;;;4900765;29;20515;-85
2023/08/22 02:14:52;;;;;;;12.90;8.98;;;20.10;99.90;;;;;;4903576;29;20047;-85
2023/08/22 02:17:18;;;;;;;11.40;9.07;;;20.10;99.90;;;;;;4902862;29;20096;-85
2023/08/22 02:19:43;;;;;;;12.82;8.93;;;20.10;99.90;;;;;;4900557;29;20095;-85
2023/08/22 02:22:09;;;;;;;14.93;8.70;;;20.10;99.90;;;;;;4901885;29;20115;-84
2023/08/22 02:24:34;;;;;;;12.02;9.30;;;20.10;99.90;;;;;;4900832;29;20820;-84
2023/08/22 02:27:00;;;;;;;13.98;8.63;;;20.10;99.90;;;;;;4901259;29;20029;-84
2023/08/22 02:29:25;;;;;;;14.05;8.93;;;20.00;99.90;;;;;;4903414;29;20029;-85
2023/08/22 02:31:51;;;;;;;14.80;9.02;;;20.00;99.90;;;;;;4905012;29;20088;-84
2023/08/22 02:34:16;;;;;;;11.80;9.45;;;19.90;99.90;;;;;;4903254;29;20032;-85
2023/08/22 02:36:42;;;;;;;14.95;9.65;;;19.90;99.90;;;;;;4904250;29;20028;-85
2023/08/22 02:39:08;;;;;;;13.40;9.07;;;19.90;99.90;;;;;;4904287;29;20040;-85
2023/08/22 02:41:33;;;;;;;9.60;8.70;;;19.90;99.90;;;;;;4903866;29;20036;-84
2023/08/22 02:43:59;;;;;;;14.93;9.50;;;19.90;99.90;;;;;;4906551;29;20035;-84
2023/08/22 02:46:25;;;;;;;13.57;9.23;;;19.80;99.90;;;;;;4902582;29;20020;-84
2023/08/22 02:48:50;;;;;;;14.32;9.75;;;19.80;99.90;;;;;;4902451;29;20024;-84
2023/08/22 02:51:16;;;;;;;10.77;9.55;;;19.80;99.90;;;;;;4903795;29;20510;-86
2023/08/22 02:53:41;;;;;;;11.77;9.10;;;19.80;99.90;;;;;;4904974;29;20241;-86
2023/08/22 02:56:07;;;;;;;14.80;10.27;;;19.70;99.90;;;;;;4905514;29;20043;-84
2023/08/22 02:58:33;;;;;;;12.73;9.70;;;19.70;99.90;;;;;;4904582;29;20480;-85
2023/08/22 03:00:58;;;;;;;12.10;10.13;;;19.60;99.90;;;;;;4905704;29;20119;-85
2023/08/22 03:03:24;;;;;;;15.45;10.07;;;19.60;99.90;;;;;;4903678;29;20515;-85
2023/08/22 03:05:49;;;;;;;12.80;10.55;;;19.60;99.90;;;;;;4903277;29;20491;-84
2023/08/22 03:08:15;;;;;;;12.70;10.68;;;19.60;99.90;;;;;;4902396;29;20028;-85
2023/08/22 03:10:40;;;;;;;15.02;10.52;;;19.60;99.90;;;;;;4902793;29;20076;-85
2023/08/22 03:13:06;;;;;;;16.50;10.20;;;19.50;99.90;;;;;;4905609;29;20032;-85
2023/08/22 03:15:31;;;;;;;14.73;10.40;;;19.50;99.90;;;;;;4903959;29;21304;-84
2023/08/22 03:17:57;;;;;;;12.65;10.07;;;19.50;99.90;;;;;;4903417;29;20035;-84
2023/08/22 03:20:23;;;;;;;17.95;10.63;;;19.50;99.90;;;;;;4903516;29;20551;-85
2023/08/22 03:22:48;;;;;;;11.30;9.68;;;19.50;99.90;;;;;;4904438;29;20047;-84
2023/08/22 03:25:14;;;;;;;14.88;9.73;;;19.50;99.90;;;;;;4904197;29;20108;-85
2023/08/22 03:27:39;;;;;;;13.80;10.25;;;19.50;99.90;;;;;;4906155;29;20072;-84
2023/08/22 03:30:06;;;;;;;10.75;9.65;;;19.50;99.90;;;;;;4904938;29;20024;-84
2023/08/22 03:32:31;;;;;;;13.32;10.20;;;19.50;99.90;;;;;;4904178;29;20040;-84
2023/08/22 03:34:57;;;;;;;13.70;9.55;;;19.40;99.90;;;;;;4903290;29;20024;-84
2023/08/22 03:37:22;;;;;;;12.63;9.70;;;19.40;99.90;;;;;;4904041;29;20025;-86
2023/08/22 03:39:48;;;;;;;13.38;9.80;;;19.40;99.90;;;;;;4903711;29;21512;-85
2023/08/22 03:42:13;;;;;;;11.07;9.55;;;19.40;99.90;;;;;;4903530;29;20579;-84
2023/08/22 03:44:39;;;;;;;14.38;9.52;;;19.40;99.90;;;;;;4904397;29;20059;-84
2023/08/22 03:47:04;;;;;;;15.50;9.73;;;19.40;99.90;;;;;;4902962;29;20121;-85
2023/08/22 03:49:30;;;;;;;15.93;9.90;;;19.40;99.90;;;;;;4905356;29;20039;-84
2023/08/22 03:51:56;;;;;;;16.88;10.02;;;19.40;99.90;;;;;;4902523;29;20033;-84
2023/08/22 03:54:21;;;;;;;14.73;9.95;;;19.30;99.90;;;;;;4904496;29;20123;-85
2023/08/22 03:56:47;;;;;;;13.80;9.50;;;19.30;99.90;;;;;;4902422;29;20123;-84
2023/08/22 03:59:12;;;;;;;13.13;9.85;;;19.30;99.90;;;;;;4902889;29;20031;-84
2023/08/22 04:01:38;;;;;;;15.75;9.65;;;19.30;99.90;;;;;;4902107;29;20041;-84
2023/08/22 04:04:03;;;;;;;12.27;10.00;;;19.30;99.90;;;;;;4906509;29;20092;-85
2023/08/22 04:06:29;;;;;;;11.25;10.13;;;19.30;99.90;;;;;;4900980;29;20048;-74
2023/08/22 04:08:54;;;;;;;12.65;10.00;;;19.30;99.90;;;;;;4897918;29;20037;-76
2023/08/22 04:11:20;;;;;;;14.82;10.23;;;19.30;99.90;;;;;;4898865;29;20040;-75
2023/08/22 04:13:45;;;;;;;12.10;9.48;;;19.30;99.90;;;;;;4900430;29;20032;-75
2023/08/22 04:16:11;;;;;;;13.77;10.38;;;19.30;99.90;;;;;;4898148;29;20115;-75
2023/08/22 04:18:36;;;;;;;12.10;9.43;;;19.30;99.90;;;;;;4900046;29;20945;-76
2023/08/22 04:21:03;;;;;;;13.63;9.85;;;19.30;99.90;;;;;;4898427;29;20071;-75
2023/08/22 04:23:29;;;;;;;15.68;9.30;;;19.20;99.90;;;;;;4898585;29;20051;-75
2023/08/22 04:25:54;;;;;;;16.33;9.82;;;19.30;99.90;;;;;;4899452;29;20032;-76
2023/08/22 04:28:20;;;;;;;12.00;8.82;;;19.30;99.90;;;;;;4898329;29;20143;-75
2023/08/22 04:30:46;;;;;;;18.10;9.48;;;19.20;99.90;;;;;;4898787;29;20025;-75
2023/08/22 04:33:11;;;;;;;13.18;9.52;;;19.20;99.90;;;;;;4897641;29;20067;-75
2023/08/22 04:35:37;;;;;;;12.27;9.38;;;19.20;99.90;;;;;;4898851;29;20476;-75
2023/08/22 04:38:03;;;;;;;14.60;9.00;;;19.20;99.90;;;;;;4896610;29;20978;-75
2023/08/22 04:40:29;;;;;;;13.43;9.35;;;19.20;99.90;;;;;;4899361;29;20080;-74
2023/08/22 04:42:54;;;;;;;12.93;8.80;;;19.20;99.90;;;;;;4900691;29;20484;-75
2023/08/22 04:45:20;;;;;;;15.30;9.68;;;19.20;99.90;;;;;;4900143;29;20536;-76
2023/08/22 04:47:45;;;;;;;16.80;10.23;;;19.20;99.90;;;;;;4899362;29;20047;-74
2023/08/22 04:50:11;;;;;;;14.10;10.32;;;19.20;99.90;;;;;;4894148;29;20032;-74
2023/08/22 04:52:37;;;;;;;13.80;10.48;;;19.20;99.90;;;;;;4895871;29;20173;-75
2023/08/22 04:55:04;;;;;;;13.68;9.90;;;19.20;99.90;;;;;;4896975;29;20171;-76
2023/08/22 04:57:30;;;;;;;19.15;9.65;;;19.30;99.90;;;;;;4900018;29;20040;-75
2023/08/22 04:59:56;;;;;;;15.38;9.68;;;19.30;99.90;;;;;;4897136;29;20028;-75
2023/08/22 05:02:22;;;;;;;12.93;9.70;;;19.30;99.90;;;;;;4896844;29;20060;-75
2023/08/22 05:04:48;;;;;;;15.70;10.88;;;19.30;99.90;;;;;;4898886;29;20120;-74
2023/08/22 05:07:13;;;;;;;18.30;9.98;;;19.30;99.90;;;;;;4898694;29;20024;-74
2023/08/22 05:09:40;;;;;;;14.30;10.38;;;19.30;99.90;;;;;;4896270;29;20536;-74
2023/08/22 05:12:06;;;;;;;12.40;9.82;;;19.40;99.90;;;;;;4898731;29;20039;-75
2023/08/22 05:14:33;;;;;;;12.25;9.73;;;19.40;99.90;;;;;;4898348;29;20901;-75
2023/08/22 05:16:58;;;;;;;13.23;9.65;;;19.40;99.90;;;;;;4898089;29;20063;-75
2023/08/22 05:19:24;;;;;;;13.90;9.60;;;19.50;99.90;;;;;;4897180;29;20115;-75
2023/08/22 05:21:49;;;;;;;11.95;8.95;;;19.50;99.90;;;;;;4897123;29;20087;-73
2023/08/22 05:24:15;;;;;;;16.00;9.18;;;19.60;99.90;;;;;;4896265;29;20033;-72
2023/08/22 05:26:40;;;;;;;10.20;9.10;;;19.60;99.90;;;;;;4897105;29;20033;-72
2023/08/22 05:29:06;;;;;;;11.25;9.60;;;19.70;99.90;;;;;;4895446;29;20028;-72
2023/08/22 05:31:32;;;;;;;10.35;8.88;;;19.70;99.90;;;;;;4893322;29;20059;-72
2023/08/22 05:33:58;;;;;;;14.65;10.00;;;19.80;99.90;;;;;;4897860;29;20107;-72
2023/08/22 05:36:23;;;;;;;12.05;9.07;;;19.90;99.90;;;;;;4897322;29;20415;-72
2023/08/22 05:38:49;;;;;;;11.98;8.50;;;20.00;99.90;;;;;;4899109;29;20735;-72
2023/08/22 05:41:16;;;;;;;13.50;9.75;;;20.00;99.90;;;;;;4896990;29;20028;-73
2023/08/22 05:43:41;;;;;;;14.63;8.95;;;20.20;99.90;;;;;;4897549;29;20127;-74
2023/08/22 05:46:07;;;;;;;16.35;9.77;;;20.20;99.90;;;;;;4896822;29;20039;-73
2023/08/22 05:48:32;;;;;;;12.55;8.73;;;20.30;99.90;;;;;;4895468;29;20032;-73
2023/08/22 05:50:58;;;;;;;13.18;8.77;;;20.40;99.90;;;;;;4896493;29;20380;-74
2023/08/22 05:53:24;;;;;;;12.73;8.80;;;20.50;99.90;;;;;;4896209;29;20032;-73
2023/08/22 05:55:49;;;;;;;15.52;9.23;;;20.70;99.90;;;;;;4895788;29;20024;-73
2023/08/22 05:58:15;;;;;;;18.48;9.55;;;20.70;99.90;;;;;;4896362;29;20132;-74
2023/08/22 06:00:41;;;;;;;12.15;8.45;;;20.80;99.90;;;;;;4895322;29;20044;-73
2023/08/22 06:03:06;;;;;;;14.30;8.00;;;21.00;99.90;;;;;;4889799;29;20059;-73
2023/08/22 06:05:32;;;;;;;11.77;8.45;;;21.10;99.90;;;;;;4889504;29;20036;-74
2023/08/22 06:07:57;;;;;;;13.65;8.75;;;21.20;99.90;;;;;;4888837;29;20036;-73
2023/08/22 06:10:23;;;;;;;14.30;8.27;;;21.30;99.90;;;;;;4889914;29;20059;-73
2023/08/22 06:12:49;;;;;;;11.45;8.18;;;21.40;99.90;;;;;;4890908;29;20043;-73
2023/08/22 06:15:14;;;;;;;11.07;7.63;;;21.60;99.90;;;;;;4890151;29;20052;-74
2023/08/22 06:17:40;;;;;;;17.75;7.78;;;21.70;99.90;;;;;;4889391;29;20036;-74
2023/08/22 06:20:06;;;;;;;14.02;7.63;;;21.80;99.90;;;;;;4888353;29;20045;-74
2023/08/22 06:22:32;;;;;;;11.60;7.72;;;21.90;99.90;;;;;;4888482;29;20039;-73
2023/08/22 06:24:57;;;;;;;10.15;7.28;;;22.00;99.90;;;;;;4889803;29;20036;-74
2023/08/22 06:27:23;;;;;;;14.63;8.23;;;22.10;99.90;;;;;;4891021;29;20119;-73
2023/08/22 06:29:48;;;;;;;12.65;8.00;;;22.20;99.90;;;;;;4889737;29;20123;-74
2023/08/22 06:32:14;;;;;;;16.60;8.38;;;22.30;99.90;;;;;;4888043;29;20032;-73
2023/08/22 06:34:39;;;;;;;14.93;8.02;;;22.50;99.90;;;;;;4887730;29;20028;-73
2023/08/22 06:37:06;;;;;;;11.63;8.25;;;22.60;99.90;;;;;;4890317;29;20095;-73
2023/08/22 06:39:32;;;;;;;10.45;7.57;;;22.70;99.90;;;;;;4888082;29;21334;-73
2023/08/22 06:41:58;;;;;;;13.48;8.05;;;22.80;99.90;;;;;;4887800;29;20115;-73
2023/08/22 06:44:23;;;;;;;13.65;8.32;;;22.90;99.90;;;;;;4889643;29;20032;-73
2023/08/22 06:46:49;;;;;;;15.30;9.00;;;23.00;99.90;;;;;;4889443;29;20565;-73
2023/08/22 06:49:14;;;;;;;13.45;8.50;;;23.10;99.90;;;;;;4888326;29;20107;-73
2023/08/22 06:51:40;;;;;;;13.75;9.13;;;23.20;99.90;;;;;;4889923;29;20046;-73
2023/08/22 06:54:05;;;;;;;12.50;8.95;;;23.30;99.90;;;;;;4889588;29;20503;-73
2023/08/22 06:56:31;;;;;;;15.85;9.20;;;23.30;99.90;;;;;;4887714;29;21034;-73
2023/08/22 06:58:56;;;;;;;17.05;8.43;;;23.40;99.90;;;;;;4889582;29;20032;-74
2023/08/22 07:01:22;;;;;;;14.07;8.60;;;23.50;99.90;;;;;;4891882;29;20119;-74
2023/08/22 07:03:48;;;;;;;17.67;8.80;;;23.70;99.90;;;;;;4893656;29;20119;-74
2023/08/22 07:06:14;;;;;;;15.45;8.55;;;23.80;99.90;;;;;;4893328;29;20032;-74
2023/08/22 07:08:39;;;;;;;13.15;9.00;;;23.90;99.90;;;;;;4891644;29;20044;-73
2023/08/22 07:11:05;;;;;;;15.15;8.88;;;24.00;99.90;;;;;;4890788;29;20458;-73
2023/08/22 07:13:32;;;;;;;11.38;8.90;;;24.10;99.90;;;;;;4893613;29;20114;-74
2023/08/22 07:15:57;;;;;;;14.10;9.27;;;24.20;99.90;;;;;;4894432;29;20086;-74
2023/08/22 07:18:23;;;;;;;13.68;9.27;;;24.30;99.90;;;;;;4892763;29;20036;-73
2023/08/22 07:20:51;;;;;;;12.55;9.27;;;24.40;99.90;;;;;;4890832;29;20056;-74
2023/08/22 07:23:18;;;;;;;12.13;8.93;;;24.50;99.90;;;;;;4891960;29;20116;-74
2023/08/22 07:25:48;;;;;;;13.27;9.65;;;24.60;99.90;;;;;;4889727;29;20419;-73
2023/08/22 07:28:14;;;;;;;12.70;8.75;;;24.70;99.90;;;;;;4891804;29;20079;-73
2023/08/22 07:30:40;;;;;;;13.00;9.57;;;24.80;99.90;;;;;;4890354;29;20139;-73
2023/08/22 07:33:06;;;;;;;14.93;8.77;;;24.90;99.90;;;;;;4891116;29;20040;-74
2023/08/22 07:35:34;;;;;;;15.65;10.00;;;24.90;99.90;;;;;;4892265;29;20587;-74
2023/08/22 07:37:59;;;;;;;14.07;9.50;;;25.10;99.90;;;;;;4893224;29;20043;-73
2023/08/22 07:40:25;;;;;;;15.95;10.27;;;25.20;99.90;;;;;;4891680;29;20684;-75
2023/08/22 07:42:50;;;;;;;16.52;9.23;;;25.30;99.90;;;;;;4893094;29;20043;-73
2023/08/22 07:45:16;;;;;;;16.58;9.02;;;25.40;99.90;;;;;;4890359;29;20096;-73
2023/08/22 07:47:42;;;;;;;12.30;8.68;;;25.40;99.90;;;;;;4890262;29;20029;-74
2023/08/22 07:50:08;;;;;;;15.65;9.05;;;25.50;99.90;;;;;;4891684;29;20444;-73
2023/08/22 07:52:33;;;;;;;13.38;9.50;;;25.60;99.90;;;;;;4890044;29;20036;-83
2023/08/22 07:54:59;;;;;;;14.65;8.60;;;25.70;99.90;;;;;;4900293;29;20155;-83
2023/08/22 07:57:24;;;;;;;15.98;9.10;;;25.80;99.90;;;;;;4897722;29;20032;-84
2023/08/22 07:59:50;;;;;;;14.27;8.77;;;25.90;99.90;;;;;;4894544;29;20135;-85
2023/08/22 08:02:15;;;;;;;15.73;8.80;;;26.00;99.90;;;;;;4894974;29;21519;-83
2023/08/22 08:04:41;;;;;;;14.70;9.20;;;26.10;99.90;;;;;;4897184;29;20048;-84
2023/08/22 08:07:07;;;;;;;12.77;8.43;;;26.20;99.90;;;;;;4893689;29;21473;-84
2023/08/22 08:09:34;;;;;;;13.60;8.60;;;26.30;99.90;;;;;;4893982;29;20094;-84
2023/08/22 08:11:59;;;;;;;10.40;8.68;;;26.40;99.90;;;;;;4891763;29;20063;-83
2023/08/22 08:14:25;;;;;;;12.20;9.07;;;26.50;99.90;;;;;;4892646;29;20186;-85
2023/08/22 08:16:50;;;;;;;11.80;8.95;;;26.60;99.90;;;;;;4893383;29;20408;-84
2023/08/22 08:19:16;;;;;;;12.88;8.45;;;26.70;99.90;;;;;;4893025;29;20036;-85
2023/08/22 08:21:42;;;;;;;12.77;8.07;;;26.70;99.90;;;;;;4892286;29;20787;-85
2023/08/22 08:24:07;;;;;;;13.75;8.88;;;26.80;99.90;;;;;;4896376;29;20036;-82
2023/08/22 08:26:33;;;;;;;14.95;8.73;;;26.80;99.90;;;;;;4897319;29;20024;-83
2023/08/22 08:28:58;;;;;;;14.85;8.20;;;27.00;99.90;;;;;;4896284;29;20028;-83
2023/08/22 08:31:24;;;;;;;14.82;8.50;;;27.00;99.90;;;;;;4897149;29;20120;-82
2023/08/22 08:33:49;;;;;;;15.60;8.55;;;27.10;99.90;;;;;;4897119;29;20024;-85
2023/08/22 08:36:15;;;;;;;15.05;8.30;;;27.30;99.90;;;;;;4897151;29;20029;-86
2023/08/22 08:38:41;;;;;;;11.32;8.25;;;27.30;99.90;;;;;;4894893;29;20036;-82
2023/08/22 08:41:08;;;;;;;17.25;8.15;;;27.40;99.90;;;;;;4895388;29;20211;-84
2023/08/22 08:43:34;;;;;;;15.98;8.40;;;27.50;99.90;;;;;;4896292;29;20040;-83
2023/08/22 08:46:00;;;;;;;13.20;7.80;;;27.60;99.90;;;;;;4896789;29;20040;-83
2023/08/22 08:48:26;;;;;;;14.77;8.68;;;27.70;99.90;;;;;;4897093;29;20097;-83
2023/08/22 08:50:52;;;;;;;16.90;9.30;;;27.80;99.90;;;;;;4897244;29;20099;-82
2023/08/22 08:53:18;;;;;;;20.42;8.60;;;27.90;99.90;;;;;;4900217;29;20036;-83
2023/08/22 08:55:47;;;;;;;15.32;8.00;;;28.00;99.90;;;;;;4898205;29;20095;-85
2023/08/22 08:58:13;;;;;;;15.10;8.30;;;28.10;99.90;;;;;;4898334;29;20083;-83
2023/08/22 09:00:39;;;;;;;16.70;8.60;;;28.10;99.90;;;;;;4895415;29;20444;-83
2023/08/22 09:03:05;;;;;;;15.18;7.65;;;28.30;99.90;;;;;;4901578;29;20068;-82
2023/08/22 09:05:31;;;;;;;12.98;8.48;;;28.50;99.90;;;;;;4904190;29;20028;-82
2023/08/22 09:08:15;;;;;;;13.70;7.63;;;28.60;99.90;;;;;;4901105;29;20032;-84
2023/08/22 09:10:41;;;;;;;14.30;8.13;;;28.70;99.90;;;;;;4902889;29;20182;-85
2023/08/22 09:13:07;;;;;;;10.63;7.43;;;28.90;99.90;;;;;;4898739;29;20040;-74
2023/08/22 09:15:32;;;;;;;16.83;7.60;;;29.00;99.90;;;;;;4895755;29;20028;-73
2023/08/22 09:17:58;;;;;;;14.15;8.40;;;29.10;99.90;;;;;;4896438;29;20147;-74
2023/08/22 09:20:24;;;;;;;25.40;8.07;;;29.30;99.90;;;;;;4895871;29;20154;-74
2023/08/22 09:22:50;;;;;;;13.45;7.38;;;29.50;99.90;;;;;;4894975;29;20032;-74
2023/08/22 09:25:16;;;;;;;12.88;7.05;;;29.70;99.90;;;;;;4894202;29;20036;-84
2023/08/22 09:27:42;;;;;;;11.32;6.93;;;29.90;99.90;;;;;;4900814;29;20064;-82
2023/08/22 09:30:08;;;;;;;15.55;7.40;;;30.10;99.90;;;;;;4900738;29;20150;-83
2023/08/22 09:32:33;;;;;;;12.75;7.32;;;30.40;99.90;;;;;;4902282;29;20032;-83
2023/08/22 09:35:02;;;;;;;14.75;7.88;;;30.70;99.90;;;;;;4899152;29;20836;-83
2023/08/22 09:37:38;;;;;;;11.13;6.70;;;30.70;99.90;;;;;;4902329;29;20503;-83
2023/08/22 09:40:16;;;;;;;10.98;6.93;;;30.90;99.90;;;;;;4902709;29;20032;-83
2023/08/22 09:42:42;;;;;;;11.77;7.82;;;31.00;99.90;;;;;;4900534;29;20407;-83
2023/08/22 09:45:09;;;;;;;10.35;6.68;;;31.10;99.90;;;;;;4899406;29;20036;-85
2023/08/22 09:47:42;;;;;;;12.75;7.35;;;31.40;99.90;;;;;;4901534;29;20021;-83
2023/08/22 09:50:09;;;;;;;15.45;7.10;;;31.40;99.90;;;;;;4901008;29;20037;-84
2023/08/22 09:52:39;;;;;;;18.25;6.68;;;31.50;99.90;;;;;;4902716;29;20032;-83
2023/08/22 09:55:07;;;;;;;12.25;6.50;;;31.60;99.90;;;;;;4902515;29;20043;-83
2023/08/22 09:57:33;;;;;;;10.38;6.47;;;31.70;99.90;;;;;;4901787;29;20032;-82
2023/08/22 10:00:00;;;;;;;12.40;6.38;;;31.70;99.90;;;;;;4901585;29;20036;-82
2023/08/22 10:02:28;;;;;;;13.27;6.20;;;31.90;99.90;;;;;;4901936;29;20040;-85
2023/08/22 10:04:54;;;;;;;10.68;6.57;;;32.00;99.90;;;;;;4903906;29;20056;-83
2023/08/22 10:07:19;;;;;;;9.65;6.57;;;32.10;99.90;;;;;;4900756;29;20062;-82
2023/08/22 10:09:45;;;;;;;15.20;6.45;;;32.40;99.90;;;;;;4899197;29;20056;-83
2023/08/22 10:12:13;;;;;;;14.07;6.65;;;32.60;99.90;;;;;;4900003;29;20051;-83
2023/08/22 10:14:43;;;;;;;13.95;6.30;;;32.70;99.90;;;;;;4900675;29;20037;-83
2023/08/22 10:17:11;;;;;;;13.48;5.97;;;32.70;99.90;;;;;;4901444;29;20135;-83
2023/08/22 10:19:37;;;;;;;9.02;6.20;;;32.70;99.90;;;;;;4901046;29;20025;-75
2023/08/22 10:22:10;;;;;;;10.10;5.57;;;32.80;99.90;;;;;;4896330;29;20062;-87
2023/08/22 10:24:35;;;;;;;15.68;6.40;;;32.90;99.90;;;;;;4895176;29;20029;-86
2023/08/22 10:27:06;;;;;;;14.30;6.43;;;33.00;99.90;;;;;;4894415;29;20039;-85
2023/08/22 10:29:33;;;;;;;10.25;6.00;;;33.20;99.90;;;;;;4895324;29;20029;-86
2023/08/22 10:32:02;;;;;;;8.45;5.72;;;33.20;99.90;;;;;;4895968;29;20080;-85
2023/08/22 10:34:40;;;;;;;11.02;5.88;;;33.40;99.90;;;;;;4896868;29;20031;-86
2023/08/22 10:37:18;;;;;;;10.20;6.18;;;33.60;99.90;;;;;;4897109;29;20038;-86
2023/08/22 10:39:50;;;;;;;13.65;6.40;;;33.70;99.90;;;;;;4899853;29;20035;-86
2023/08/22 10:42:20;;;;;;;14.13;5.50;;;33.80;99.90;;;;;;4899131;29;20028;-87
2023/08/22 10:44:53;;;;;;;9.13;5.88;;;33.90;99.90;;;;;;4898276;29;20040;-86
2023/08/22 10:47:26;;;;;;;7.87;5.30;;;34.00;99.90;;;;;;4898332;29;20551;-86
2023/08/22 10:49:53;;;;;;;;;;;33.90;99.90;;;;;;4899204;29;20032;-86
2023/08/22 10:52:26;;;;;;;8.00;5.00;;;34.00;99.90;;;;;;4898605;29;20323;-74
2023/08/22 10:55:00;;;;;;;10.75;5.47;;;34.00;99.90;;;;;;4900182;29;20099;-85
2023/08/22 10:57:28;;;;;;;;;;;34.40;99.90;;;;;;4897297;29;20115;-85
2023/08/22 11:00:01;;;;;;;17.08;5.95;;;34.60;99.90;;;;;;4898619;29;20693;-86
2023/08/22 11:02:34;;;;;;;10.00;6.00;;;34.70;99.90;;;;;;4901944;29;20415;-84
2023/08/22 11:05:01;;;;;;;11.47;5.67;;;34.40;99.90;;;;;;4899384;29;20031;-84
2023/08/22 11:07:28;;;;;;;11.70;5.03;;;34.40;99.90;;;;;;4898069;29;20803;-84
2023/08/22 11:09:54;;;;;;;9.95;5.40;;;34.50;99.90;;;;;;4900086;29;20123;-84
2023/08/22 11:12:27;;;;;;;9.23;5.15;;;34.50;99.90;;;;;;4901189;29;20024;-85
2023/08/22 11:14:55;;;;;;;8.90;5.47;;;34.80;99.90;;;;;;4898582;29;20032;-85
2023/08/22 11:17:22;;;;;;;9.25;5.15;;;35.00;99.90;;;;;;4901172;29;20032;-85
2023/08/22 11:19:49;;;;;;;11.93;5.43;;;35.00;99.90;;;;;;4899177;29;20029;-84
2023/08/22 11:22:15;;;;;;;8.85;5.35;;;34.90;99.90;;;;;;4898303;29;20782;-85
2023/08/22 11:24:44;;;;;;;9.00;5.47;;;34.90;99.90;;;;;;4898599;29;20527;-85
2023/08/22 11:27:12;;;;;;;9.65;4.97;;;34.90;99.90;;;;;;4898014;29;20028;-86
2023/08/22 11:29:44;;;;;;;8.80;4.82;;;35.00;99.90;;;;;;4899469;29;20036;-87
2023/08/22 11:32:30;;;;;;;8.60;5.10;;;35.10;99.90;;;;;;4897610;29;20036;-85
2023/08/22 11:35:01;;;;;;;10.65;5.32;;;35.00;99.90;;;;;;4898796;29;20020;-86
2023/08/22 11:37:29;;;;;;;9.60;5.78;;;35.10;99.90;;;;;;4898777;29;20710;-86
2023/08/22 11:39:57;;;;;;;9.70;5.45;;;35.10;99.90;;;;;;4897940;29;20028;-86
2023/08/22 11:42:26;;;;;;;11.32;5.15;;;35.10;99.90;;;;;;4898285;29;20167;-86
2023/08/22 11:45:04;;;;;;;7.28;5.38;;;35.00;99.90;;;;;;4897299;29;20574;-86
2023/08/22 11:47:45;;;;;;;15.95;5.57;;;35.10;99.90;;;;;;4897155;29;20035;-87
2023/08/22 11:50:16;;;;;;;13.50;5.47;;;35.30;99.90;;;;;;4899238;29;20349;-86
2023/08/22 11:52:43;;;;;;;10.02;5.45;;;35.30;99.90;;;;;;4901036;29;20476;-87
2023/08/22 11:55:11;;;;;;;9.80;5.30;;;35.20;99.90;;;;;;4897937;29;20037;-87
2023/08/22 11:57:41;;;;;;;9.48;5.47;;;35.20;99.90;;;;;;4900347;29;20115;-87
2023/08/22 12:00:09;;;;;;;10.68;5.80;;;34.80;99.90;;;;;;4898029;29;20036;-85
2023/08/22 12:02:36;;;;;;;12.20;5.80;;;34.40;99.90;;;;;;4896744;29;20039;-84
2023/08/22 12:05:02;;;;;;;10.13;5.50;;;34.00;99.90;;;;;;4897485;29;20024;-85
2023/08/22 12:07:27;;;;;;;9.40;5.22;;;33.90;99.90;;;;;;4897202;29;21365;-84
2023/08/22 12:10:00;;;;;;;10.60;5.00;;;34.00;99.90;;;;;;4897020;29;20029;-85
2023/08/22 12:12:26;;;;;;;13.50;5.20;;;34.30;99.90;;;;;;4898567;29;20396;-84
2023/08/22 12:14:52;;;;;;;7.43;4.72;;;34.40;99.90;;;;;;4898553;29;20440;-86
2023/08/22 12:17:18;;;;;;;6.35;4.78;;;34.40;99.90;;;;;;4897101;29;20080;-85
2023/08/22 12:19:44;;;;;;;10.60;4.70;;;34.50;99.90;;;;;;4894368;29;20045;-88
2023/08/22 12:22:10;;;;;;;7.63;5.22;;;35.00;99.90;;;;;;4899287;29;20028;-86
2023/08/22 12:24:35;;;;;;;10.30;5.57;;;35.20;99.90;;;;;;4896984;29;20045;-84
2023/08/22 12:27:01;;;;;;;7.90;4.65;;;35.40;99.90;;;;;;4895907;29;20032;-86
2023/08/22 12:29:26;;;;;;;12.02;5.55;;;35.40;99.90;;;;;;4897268;29;20035;-84
2023/08/22 12:31:52;;;;;;;19.33;5.75;;;35.30;99.90;;;;;;4900651;29;20170;-83
2023/08/22 12:34:17;;;;;;;9.93;4.95;;;34.90;99.90;;;;;;4899619;29;20024;-84
2023/08/22 12:36:43;;;;;;;10.45;5.55;;;34.50;99.90;;;;;;4900403;29;20577;-77